Terminal Aerodrome Forecast
Issued by NWS

Home | Current Version | Previous Version | Graphics & Text | Print | Product List | Glossary On
Versions: 1 2 3 4 5 6 7 8 9 10 11 12 13 14 15 16 17 18 19
000
FTUS43 KMPX 292300
TAFRWF
TAF
KRWF 292331Z 3000/3024 07008KT P6SM SCT030
     FM300400 10009KT P6SM SCT012 SCT025
      TEMPO 3009/3013 5SM BR OVC008
     FM301400 13012G19KT P6SM SCT020 SCT070
     FM301900 14014G21KT P6SM SCT030 BKN050
     FM302100 15012G20KT 6SM -RA BR SCT025 BKN040=

USA.gov is the U.S. government's official web portal to all federal, state and local government web resources and services.